Dorset, Ohio
Current Conditions -  °F | °C
As of 10:53 AM on Friday 24 Oct 2014 (Local Time) from KHZY Reporting Station
Clear Clear  
Wind Chill: 54°   Ceiling: Unl
Heat Index: 54°   Visibility: 10mi
Dew Point: 46°   Wind: 8mph
Humidity: 75%   Direction: 270°W
Pressure: 30.08"   Gusts: NA
Location:  41.69°N, 80.67°W
Report Text: KHZY 241453Z AUTO 27007KT 10SM CLR 12/08 A3008 RMK AO2 SLP187 T01220078 58003
Loading
Personal Weather Stations






























Interactive Weather Map
Tropical Storm Tracking
New forecast layout! Learn more

10-Day Weather Forecast

Advertisements
Track Severe Weather on mobile